createdAt,value
2022-11-07T00:01:20.438Z,14.02
2022-11-07T00:03:47.488Z,17.08
2022-11-07T00:06:14.141Z,17.25
2022-11-07T00:08:41.124Z,15.07
2022-11-07T00:11:08.022Z,13.68
2022-11-07T00:13:34.982Z,21.70
2022-11-07T00:16:04.539Z,36.80
2022-11-07T00:18:31.661Z,39.13
2022-11-07T00:21:06.443Z,24.30
2022-11-07T00:23:34.011Z,21.13
2022-11-07T00:26:08.089Z,17.25
2022-11-07T00:28:36.703Z,13.57
2022-11-07T00:31:04.543Z,15.02
2022-11-07T00:33:31.605Z,13.73
2022-11-07T00:35:58.510Z,14.85
2022-11-07T00:38:25.534Z,13.40
2022-11-07T00:40:56.916Z,15.80
2022-11-07T00:43:24.528Z,14.93
2022-11-07T00:45:51.449Z,17.03
2022-11-07T00:48:18.690Z,21.80
2022-11-07T00:50:45.639Z,26.05
2022-11-07T00:53:12.923Z,34.92
2022-11-07T00:55:39.873Z,25.08
2022-11-07T00:58:12.559Z,20.47
2022-11-07T01:00:40.756Z,18.23
2022-11-07T01:03:27.922Z,15.70
2022-11-07T01:06:02.703Z,18.08
2022-11-07T01:08:30.910Z,16.85
2022-11-07T01:10:58.515Z,19.23
2022-11-07T01:13:26.085Z,17.88
2022-11-07T01:15:52.761Z,16.10
2022-11-07T01:18:20.022Z,18.42
2022-11-07T01:20:46.743Z,15.68
2022-11-07T01:23:14.157Z,15.17
2022-11-07T01:25:41.463Z,17.92
2022-11-07T01:28:09.762Z,17.23
2022-11-07T01:30:41.084Z,14.98
2022-11-07T01:33:08.539Z,19.33
2022-11-07T01:35:35.849Z,24.47
2022-11-07T01:38:03.295Z,20.60
2022-11-07T01:40:30.346Z,23.23
2022-11-07T01:42:57.378Z,22.20
2022-11-07T01:45:27.066Z,26.63
2022-11-07T01:47:57.292Z,27.53
2022-11-07T01:50:25.024Z,20.67
2022-11-07T01:52:55.397Z,19.13
2022-11-07T01:55:31.380Z,15.68
2022-11-07T01:58:08.533Z,22.73
2022-11-07T02:00:36.979Z,16.53
2022-11-07T02:03:13.220Z,22.85
2022-11-07T02:05:40.276Z,19.77
2022-11-07T02:08:09.235Z,15.70
2022-11-07T02:10:37.983Z,16.52
2022-11-07T02:13:05.680Z,25.63
2022-11-07T02:15:34.667Z,23.50
2022-11-07T02:18:02.323Z,26.17
2022-11-07T02:20:29.313Z,16.17
2022-11-07T02:23:00.994Z,12.18
2022-11-07T02:25:27.610Z,11.83
2022-11-07T02:27:59.518Z,12.10
2022-11-07T02:30:29.492Z,10.55
2022-11-07T02:32:56.742Z,11.90
2022-11-07T02:35:44.567Z,12.30
2022-11-07T02:38:15.928Z,13.77
2022-11-07T02:40:45.727Z,19.25
2022-11-07T02:43:15.516Z,19.70
2022-11-07T02:45:46.012Z,16.05
2022-11-07T02:48:12.957Z,18.52
2022-11-07T02:50:40.352Z,17.10
2022-11-07T02:53:07.270Z,21.58
2022-11-07T02:55:33.989Z,20.60
2022-11-07T02:58:01.036Z,24.30
2022-11-07T03:00:27.688Z,20.83
2022-11-07T03:02:54.941Z,26.90
2022-11-07T03:05:21.796Z,21.05
2022-11-07T03:07:49.604Z,21.38
2022-11-07T03:10:17.663Z,24.38
2022-11-07T03:12:44.773Z,24.23
2022-11-07T03:15:12.353Z,21.00
2022-11-07T03:17:39.753Z,16.90
2022-11-07T03:20:07.867Z,16.98
2022-11-07T03:22:34.738Z,15.32
2022-11-07T03:25:01.488Z,16.27
2022-11-07T03:27:28.573Z,21.40
2022-11-07T03:29:55.256Z,15.82
2022-11-07T03:32:22.870Z,22.58
2022-11-07T03:34:49.778Z,27.35
2022-11-07T03:37:17.162Z,17.25
2022-11-07T03:39:43.770Z,20.07
2022-11-07T03:42:10.876Z,19.17
2022-11-07T03:44:37.489Z,21.45
2022-11-07T03:47:04.408Z,20.90
2022-11-07T03:49:31.043Z,20.25
2022-11-07T03:51:57.894Z,16.17
2022-11-07T03:54:24.583Z,19.52
2022-11-07T03:56:51.421Z,23.15
2022-11-07T03:59:18.094Z,20.05
2022-11-07T04:01:48.177Z,18.75
2022-11-07T04:04:14.862Z,16.53
2022-11-07T04:06:41.807Z,18.92
2022-11-07T04:09:09.268Z,17.80
2022-11-07T04:11:54.889Z,18.90
2022-11-07T04:14:40.012Z,18.70
2022-11-07T04:17:19.082Z,18.63
2022-11-07T04:19:47.204Z,19.17
2022-11-07T04:22:14.468Z,16.58
2022-11-07T04:24:45.791Z,17.38
2022-11-07T04:27:33.060Z,17.38
2022-11-07T04:30:18.792Z,23.20
2022-11-07T04:32:53.875Z,20.88
2022-11-07T04:35:22.197Z,19.10
2022-11-07T04:37:49.349Z,17.33
2022-11-07T04:40:16.938Z,16.83
2022-11-07T04:42:44.509Z,15.17
2022-11-07T04:45:12.511Z,16.52
2022-11-07T04:47:40.738Z,15.18
2022-11-07T04:50:10.212Z,13.07
2022-11-07T04:52:37.552Z,26.00
2022-11-07T04:55:05.757Z,32.77
2022-11-07T04:57:32.689Z,27.80
2022-11-07T04:59:59.341Z,21.58
2022-11-07T05:02:26.396Z,19.65
2022-11-07T05:04:53.414Z,23.42
2022-11-07T05:07:20.956Z,21.27
2022-11-07T05:09:47.921Z,17.05
2022-11-07T05:12:14.874Z,16.88
2022-11-07T05:14:41.571Z,21.80
2022-11-07T05:17:13.510Z,22.40
2022-11-07T05:19:43.059Z,16.53
2022-11-07T05:22:29.974Z,17.95
2022-11-07T05:24:56.745Z,23.95
2022-11-07T05:27:24.840Z,21.05
2022-11-07T05:29:51.778Z,18.08
2022-11-07T05:32:19.163Z,15.33
2022-11-07T05:34:45.829Z,15.98
2022-11-07T05:37:13.476Z,15.85
2022-11-07T05:39:40.135Z,16.33
2022-11-07T05:42:08.113Z,20.63
2022-11-07T05:44:34.783Z,19.57
2022-11-07T05:47:01.668Z,18.13
2022-11-07T05:49:29.382Z,20.25
2022-11-07T05:51:57.263Z,19.20
2022-11-07T05:54:24.645Z,17.73
2022-11-07T05:56:56.211Z,21.23
2022-11-07T05:59:23.007Z,20.33
2022-11-07T06:01:51.212Z,33.13
2022-11-07T06:04:18.188Z,36.85
2022-11-07T06:06:45.098Z,31.20
2022-11-07T06:09:11.858Z,28.40
2022-11-07T06:11:38.709Z,23.23
2022-11-07T06:14:05.383Z,22.25
2022-11-07T06:16:32.289Z,24.15
2022-11-07T06:18:58.901Z,22.15
2022-11-07T06:21:25.768Z,18.57
2022-11-07T06:23:52.384Z,20.77
2022-11-07T06:26:19.292Z,19.65
2022-11-07T06:28:45.916Z,18.23
2022-11-07T06:31:12.775Z,21.42
2022-11-07T06:33:39.535Z,19.00
2022-11-07T06:36:09.374Z,28.10
2022-11-07T06:38:36.917Z,32.35
2022-11-07T06:41:08.636Z,33.42
2022-11-07T06:43:36.026Z,28.52
2022-11-07T06:46:04.997Z,28.93
2022-11-07T06:48:31.729Z,25.95
2022-11-07T06:51:00.147Z,23.55
2022-11-07T06:53:27.386Z,25.63
2022-11-07T06:55:54.818Z,29.58
2022-11-07T06:58:22.047Z,31.20
2022-11-07T07:00:49.219Z,26.85
2022-11-07T07:03:16.263Z,22.38
2022-11-07T07:05:43.516Z,18.77
2022-11-07T07:08:12.969Z,32.83
2022-11-07T07:10:43.878Z,28.33
2022-11-07T07:13:13.293Z,26.52
2022-11-07T07:15:52.703Z,28.88
2022-11-07T07:18:20.124Z,21.85
2022-11-07T07:20:51.365Z,28.90
2022-11-07T07:23:20.095Z,27.07
2022-11-07T07:25:47.915Z,26.08
2022-11-07T07:28:14.591Z,24.63
2022-11-07T07:30:43.031Z,23.13
2022-11-07T07:33:11.489Z,22.05
2022-11-07T07:35:38.440Z,26.10
2022-11-07T07:38:05.072Z,19.60
2022-11-07T07:40:32.042Z,18.60
2022-11-07T07:42:58.647Z,19.52
2022-11-07T07:45:25.489Z,17.95
2022-11-07T07:47:53.046Z,19.80
2022-11-07T07:50:20.367Z,17.90
2022-11-07T07:52:47.008Z,23.33
2022-11-07T07:55:13.829Z,23.98
2022-11-07T07:57:42.463Z,16.95
2022-11-07T08:00:12.153Z,16.00
2022-11-07T08:02:39.227Z,18.77
2022-11-07T08:05:06.687Z,16.80
2022-11-07T08:07:33.590Z,13.70
2022-11-07T08:10:09.837Z,13.02
2022-11-07T08:12:49.281Z,11.10
2022-11-07T08:15:17.582Z,14.25
2022-11-07T08:17:45.130Z,14.23
2022-11-07T08:20:15.132Z,13.73
2022-11-07T08:22:41.891Z,12.50
2022-11-07T08:25:10.887Z,12.03
2022-11-07T08:27:38.091Z,16.40
2022-11-07T08:30:07.335Z,13.65
2022-11-07T08:32:34.080Z,13.98
2022-11-07T08:35:01.044Z,15.75
2022-11-07T08:37:27.642Z,12.83
2022-11-07T08:39:54.481Z,17.10
2022-11-07T08:42:21.206Z,12.95
2022-11-07T08:44:48.061Z,13.57
2022-11-07T08:47:14.690Z,14.02
2022-11-07T08:49:41.500Z,15.07
2022-11-07T08:52:08.363Z,13.65
2022-11-07T08:54:35.269Z,10.40
2022-11-07T08:57:02.023Z,14.02
2022-11-07T08:59:29.329Z,13.02
2022-11-07T09:02:28.335Z,15.27
2022-11-07T09:04:43.082Z,17.10
2022-11-07T09:07:09.831Z,17.67
2022-11-07T09:09:36.725Z,19.65
2022-11-07T09:12:03.559Z,22.80
2022-11-07T09:14:30.399Z,22.83
2022-11-07T09:16:57.915Z,29.42
2022-11-07T09:19:24.768Z,39.40
2022-11-07T09:21:51.400Z,44.22
2022-11-07T09:24:18.274Z,38.97
2022-11-07T09:26:44.904Z,41.20
2022-11-07T09:29:11.791Z,39.28
2022-11-07T09:31:38.501Z,39.35
2022-11-07T09:34:07.289Z,33.88
2022-11-07T09:36:34.413Z,24.13
2022-11-07T09:39:01.310Z,25.00
2022-11-07T09:41:56.484Z,22.65
2022-11-07T09:44:42.417Z,22.38
2022-11-07T09:47:14.583Z,15.82
2022-11-07T09:49:46.996Z,55.40
2022-11-07T09:52:37.583Z,86.07
2022-11-07T09:55:16.137Z,38.13
2022-11-07T09:57:42.836Z,12.95
2022-11-07T10:00:19.644Z,13.75
2022-11-07T10:02:49.432Z,8.18
2022-11-07T10:05:23.648Z,6.53
2022-11-07T10:08:03.427Z,7.82
2022-11-07T10:10:55.191Z,7.78
2022-11-07T10:13:40.559Z,7.75
2022-11-07T10:16:19.950Z,9.32
2022-11-07T10:19:10.341Z,10.70
2022-11-07T10:21:39.998Z,8.35
2022-11-07T10:24:47.371Z,6.90
2022-11-07T10:27:14.530Z,7.32
2022-11-07T10:29:47.835Z,23.30
2022-11-07T10:32:18.713Z,9.37
2022-11-07T10:35:18.232Z,9.23
2022-11-07T10:38:00.483Z,6.80
2022-11-07T10:40:35.296Z,9.50
2022-11-07T10:43:08.137Z,7.25
2022-11-07T10:45:35.105Z,7.27
2022-11-07T10:48:03.879Z,9.13
2022-11-07T10:50:31.411Z,8.23
2022-11-07T10:53:05.594Z,6.40
2022-11-07T10:55:43.334Z,5.85
2022-11-07T10:58:21.174Z,7.40
2022-11-07T11:01:02.496Z,6.30
2022-11-07T11:03:43.828Z,7.63
2022-11-07T11:06:17.537Z,5.85
2022-11-07T11:08:46.235Z,11.00
2022-11-07T11:11:34.721Z,8.13
2022-11-07T11:14:13.276Z,15.52
2022-11-07T11:16:42.182Z,8.02
2022-11-07T11:19:55.326Z,5.55
2022-11-07T11:22:24.668Z,5.10
2022-11-07T11:25:10.291Z,7.17
2022-11-07T11:27:38.611Z,5.05
2022-11-07T11:30:08.926Z,8.30
2022-11-07T11:32:38.710Z,7.07
2022-11-07T11:35:24.249Z,7.07
2022-11-07T11:37:58.722Z,5.60
2022-11-07T11:40:25.600Z,6.68
2022-11-07T11:42:59.445Z,4.78
2022-11-07T11:45:35.410Z,4.55
2022-11-07T11:48:24.624Z,8.35
2022-11-07T11:51:00.832Z,8.37
2022-11-07T11:53:28.145Z,7.30
2022-11-07T11:56:07.247Z,6.03
2022-11-07T11:59:03.354Z,5.90
2022-11-07T12:02:08.102Z,5.38
2022-11-07T12:04:50.059Z,5.23
2022-11-07T12:07:28.808Z,5.63
2022-11-07T12:10:02.774Z,8.85
2022-11-07T12:12:51.527Z,5.97
2022-11-07T12:15:44.373Z,6.32
2022-11-07T12:18:42.351Z,5.20
2022-11-07T12:21:21.404Z,6.20
2022-11-07T12:23:51.184Z,7.15
2022-11-07T12:26:40.719Z,10.55
2022-11-07T12:29:32.386Z,6.35
2022-11-07T12:32:11.683Z,6.53
2022-11-07T12:34:41.852Z,7.78
2022-11-07T12:37:27.789Z,9.60
2022-11-07T12:40:22.292Z,6.85
2022-11-07T12:42:55.910Z,7.55
2022-11-07T12:45:46.721Z,6.77
2022-11-07T12:48:39.272Z,5.75
2022-11-07T12:51:28.006Z,7.10
2022-11-07T12:54:15.364Z,8.50
2022-11-07T12:56:46.250Z,6.28
2022-11-07T12:59:21.074Z,7.05
2022-11-07T13:02:06.479Z,5.33
2022-11-07T13:04:45.463Z,5.93
2022-11-07T13:07:27.796Z,7.28
2022-11-07T13:10:15.998Z,14.98
2022-11-07T13:12:59.417Z,12.75
2022-11-07T13:15:26.605Z,11.37
2022-11-07T13:17:54.335Z,10.70
2022-11-07T13:20:26.858Z,5.60
2022-11-07T13:23:00.197Z,9.48
2022-11-07T13:25:32.887Z,6.82
2022-11-07T13:28:06.427Z,6.53
2022-11-07T13:30:38.386Z,5.55
2022-11-07T13:33:06.672Z,8.85
2022-11-07T13:35:35.620Z,13.20
2022-11-07T13:38:20.522Z,7.03
2022-11-07T13:40:49.204Z,7.03
2022-11-07T13:43:34.544Z,8.95
2022-11-07T13:46:05.405Z,9.70
2022-11-07T13:48:44.597Z,8.20
2022-11-07T13:51:31.609Z,5.55
2022-11-07T13:54:11.204Z,6.00
2022-11-07T13:56:54.222Z,6.60
2022-11-07T13:59:48.875Z,10.13
2022-11-07T14:02:20.771Z,13.68
2022-11-07T14:05:14.688Z,10.75
2022-11-07T14:07:51.004Z,14.87
2022-11-07T14:10:37.917Z,7.35
2022-11-07T14:13:10.417Z,6.28
2022-11-07T14:15:45.945Z,5.18
2022-11-07T14:18:20.775Z,6.18
2022-11-07T14:20:50.010Z,6.60
2022-11-07T14:23:21.418Z,4.93
2022-11-07T14:26:00.027Z,5.82
2022-11-07T14:28:39.750Z,10.40
2022-11-07T14:31:15.506Z,9.35
2022-11-07T14:33:53.696Z,6.67
2022-11-07T14:36:21.616Z,5.72
2022-11-07T14:38:53.987Z,4.85
2022-11-07T14:41:22.630Z,5.15
2022-11-07T14:43:50.141Z,4.45
2022-11-07T14:46:22.782Z,3.43
2022-11-07T14:48:51.403Z,5.45
2022-11-07T14:51:24.368Z,7.00
2022-11-07T14:54:09.680Z,8.68
2022-11-07T14:56:40.931Z,4.80
2022-11-07T14:59:18.031Z,6.10
2022-11-07T15:01:57.743Z,4.95
2022-11-07T15:04:43.401Z,6.68
2022-11-07T15:07:25.267Z,6.57
2022-11-07T15:10:10.593Z,5.35
2022-11-07T15:12:52.091Z,5.13
2022-11-07T15:15:32.268Z,6.75
2022-11-07T15:18:05.245Z,6.63
2022-11-07T15:20:35.106Z,5.20
2022-11-07T15:23:23.920Z,4.43
2022-11-07T15:26:10.427Z,5.47
2022-11-07T15:28:43.356Z,4.85
2022-11-07T15:31:26.202Z,7.35
2022-11-07T15:33:54.864Z,7.28
2022-11-07T15:36:22.117Z,6.80
2022-11-07T15:38:50.329Z,7.27
2022-11-07T15:41:18.178Z,6.30
2022-11-07T15:43:45.621Z,5.80
2022-11-07T15:46:36.300Z,7.65
2022-11-07T15:49:03.245Z,4.95
2022-11-07T15:51:30.358Z,5.27
2022-11-07T15:53:57.447Z,5.63
2022-11-07T15:56:25.676Z,6.35
2022-11-07T15:58:54.945Z,5.13
2022-11-07T16:01:22.824Z,5.10
2022-11-07T16:03:49.833Z,6.07
2022-11-07T16:06:26.649Z,6.45
2022-11-07T16:08:53.859Z,6.18
2022-11-07T16:11:20.516Z,5.93
2022-11-07T16:13:47.817Z,8.15
2022-11-07T16:16:27.344Z,6.90
2022-11-07T16:18:54.397Z,5.47
2022-11-07T16:21:21.084Z,6.45
2022-11-07T16:23:49.618Z,5.10
2022-11-07T16:26:21.228Z,122.22
2022-11-07T16:28:48.164Z,30.97
2022-11-07T16:31:14.763Z,12.60
2022-11-07T16:33:41.661Z,7.55
2022-11-07T16:36:21.604Z,7.40
2022-11-07T16:38:48.706Z,7.00
2022-11-07T16:41:15.645Z,5.70
2022-11-07T16:43:42.792Z,5.97
2022-11-07T16:46:15.431Z,4.43
2022-11-07T16:48:43.435Z,4.75
2022-11-07T16:51:15.250Z,5.15
2022-11-07T16:53:43.094Z,8.30
2022-11-07T16:56:26.692Z,6.03
2022-11-07T16:58:54.598Z,7.78
2022-11-07T17:01:23.266Z,6.10
2022-11-07T17:03:50.924Z,5.57
2022-11-07T17:06:31.024Z,8.27
2022-11-07T17:09:07.242Z,7.85
2022-11-07T17:11:37.802Z,5.32
2022-11-07T17:14:04.871Z,6.68
2022-11-07T17:16:35.617Z,4.72
2022-11-07T17:19:04.233Z,5.20
2022-11-07T17:21:33.851Z,6.45
2022-11-07T17:24:01.472Z,4.50
2022-11-07T17:26:31.534Z,5.70
2022-11-07T17:28:58.953Z,4.75
2022-11-07T17:31:25.763Z,4.33
2022-11-07T17:33:53.232Z,5.72
2022-11-07T17:36:36.611Z,6.07
2022-11-07T17:39:10.994Z,6.60
2022-11-07T17:41:39.897Z,8.30
2022-11-07T17:44:06.934Z,12.33
2022-11-07T17:46:35.379Z,10.05
2022-11-07T17:49:09.105Z,7.85
2022-11-07T17:51:36.084Z,7.80
2022-11-07T17:54:04.272Z,6.65
2022-11-07T17:56:32.848Z,7.63
2022-11-07T17:59:03.207Z,5.95
2022-11-07T18:01:32.728Z,5.38
2022-11-07T18:04:00.559Z,5.68
2022-11-07T18:06:28.094Z,5.60
2022-11-07T18:08:57.476Z,9.93
2022-11-07T18:11:27.270Z,23.30
2022-11-07T18:13:56.236Z,18.25
2022-11-07T18:16:26.587Z,18.23
2022-11-07T18:18:53.594Z,18.23
2022-11-07T18:21:20.623Z,16.33
2022-11-07T18:23:48.091Z,17.77
2022-11-07T18:26:20.567Z,27.75
2022-11-07T18:28:49.454Z,28.63
2022-11-07T18:31:19.152Z,32.92
2022-11-07T18:33:46.601Z,30.40
2022-11-07T18:36:17.698Z,27.17
2022-11-07T18:38:45.249Z,27.83
2022-11-07T18:41:19.037Z,24.35
2022-11-07T18:43:45.980Z,21.08
2022-11-07T18:46:15.617Z,17.77
2022-11-07T18:48:43.198Z,15.18
2022-11-07T18:51:30.177Z,71.45
2022-11-07T18:54:00.098Z,38.63
2022-11-07T18:56:26.913Z,17.38
2022-11-07T18:58:55.085Z,9.40
2022-11-07T19:01:26.506Z,9.90
2022-11-07T19:03:59.624Z,15.70
2022-11-07T19:06:28.204Z,10.13
2022-11-07T19:08:55.449Z,23.50
2022-11-07T19:11:26.640Z,33.90
2022-11-07T19:13:53.668Z,27.52
2022-11-07T19:16:24.550Z,22.13
2022-11-07T19:18:51.879Z,26.42
2022-11-07T19:21:20.633Z,16.30
2022-11-07T19:23:48.651Z,13.67
2022-11-07T19:26:16.386Z,10.43
2022-11-07T19:28:43.215Z,12.73
2022-11-07T19:31:13.413Z,16.48
2022-11-07T19:33:41.663Z,17.85
2022-11-07T19:36:13.507Z,16.60
2022-11-07T19:38:41.053Z,16.95
2022-11-07T19:41:09.319Z,16.10
2022-11-07T19:43:36.520Z,19.95
2022-11-07T19:46:11.752Z,15.85
2022-11-07T19:48:38.620Z,14.93
2022-11-07T19:51:07.205Z,13.98
2022-11-07T19:53:34.152Z,18.52
2022-11-07T19:56:09.339Z,20.00
2022-11-07T19:58:38.588Z,15.07
2022-11-07T20:01:10.733Z,14.43
2022-11-07T20:03:38.059Z,15.27
2022-11-07T20:06:09.520Z,13.80
2022-11-07T20:08:37.386Z,16.50
2022-11-07T20:11:04.596Z,15.40
2022-11-07T20:13:32.273Z,24.27
2022-11-07T20:15:59.437Z,18.73
2022-11-07T20:18:26.387Z,24.45
2022-11-07T20:21:01.103Z,26.90
2022-11-07T20:23:28.292Z,24.38
2022-11-07T20:25:55.114Z,19.57
2022-11-07T20:28:22.284Z,16.42
2022-11-07T20:30:49.167Z,19.33
2022-11-07T20:33:16.637Z,25.90
2022-11-07T20:35:44.036Z,20.83
2022-11-07T20:38:11.116Z,15.70
2022-11-07T20:40:38.558Z,23.27
2022-11-07T20:43:08.737Z,18.05
2022-11-07T20:45:35.767Z,22.85
2022-11-07T20:48:03.973Z,25.75
2022-11-07T20:50:32.198Z,19.47
2022-11-07T20:53:00.055Z,19.65
2022-11-07T20:55:27.111Z,15.93
2022-11-07T20:57:55.558Z,26.50
2022-11-07T21:00:23.245Z,25.48
2022-11-07T21:02:50.373Z,28.37
2022-11-07T21:05:19.875Z,23.80
2022-11-07T21:07:48.304Z,17.60
2022-11-07T21:10:15.134Z,19.92
2022-11-07T21:12:42.887Z,23.67
2022-11-07T21:15:10.408Z,21.80
2022-11-07T21:17:37.559Z,21.63
2022-11-07T21:20:05.243Z,21.63
2022-11-07T21:22:32.243Z,22.10
2022-11-07T21:24:58.897Z,20.67
2022-11-07T21:27:25.808Z,23.33
2022-11-07T21:29:52.537Z,28.10
2022-11-07T21:32:19.487Z,21.52
2022-11-07T21:34:47.244Z,28.48
2022-11-07T21:37:14.213Z,26.35
2022-11-07T21:39:40.922Z,19.80
2022-11-07T21:42:07.837Z,18.67
2022-11-07T21:44:34.441Z,17.65
2022-11-07T21:47:01.295Z,19.25
2022-11-07T21:49:27.868Z,21.67
2022-11-07T21:51:56.897Z,20.47
2022-11-07T21:54:24.777Z,17.95
2022-11-07T21:56:51.686Z,24.25
2022-11-07T21:59:19.093Z,18.35
2022-11-07T22:01:48.579Z,19.65
2022-11-07T22:04:16.060Z,19.17
2022-11-07T22:06:44.752Z,17.95
2022-11-07T22:09:14.972Z,17.27
2022-11-07T22:11:42.146Z,20.05
2022-11-07T22:14:13.363Z,17.33
2022-11-07T22:16:40.315Z,16.60
2022-11-07T22:19:12.076Z,18.55
2022-11-07T22:21:40.058Z,15.50
2022-11-07T22:24:07.429Z,17.73
2022-11-07T22:26:34.584Z,18.02
2022-11-07T22:29:01.252Z,14.63
2022-11-07T22:31:30.610Z,15.05
2022-11-07T22:33:59.069Z,14.63
2022-11-07T22:36:26.462Z,16.58
2022-11-07T22:38:53.841Z,11.15
2022-11-07T22:41:23.658Z,13.13
2022-11-07T22:43:51.935Z,14.50
2022-11-07T22:46:22.083Z,23.75
2022-11-07T22:48:50.082Z,17.67
2022-11-07T22:51:23.428Z,14.60
2022-11-07T22:54:02.187Z,15.57
2022-11-07T22:56:30.183Z,11.65
2022-11-07T22:58:57.565Z,12.57
2022-11-07T23:01:28.616Z,14.93
2022-11-07T23:03:56.476Z,19.77
2022-11-07T23:06:24.410Z,27.27
2022-11-07T23:08:51.724Z,15.07
2022-11-07T23:11:49.205Z,19.90
2022-11-07T23:14:18.990Z,13.10
2022-11-07T23:16:51.415Z,10.00
2022-11-07T23:19:20.277Z,13.23
2022-11-07T23:21:47.615Z,15.75
2022-11-07T23:24:14.666Z,10.68
2022-11-07T23:26:41.527Z,10.05
2022-11-07T23:29:14.746Z,9.75
2022-11-07T23:31:47.021Z,7.53
2022-11-07T23:34:14.622Z,8.65
2022-11-07T23:36:43.951Z,6.25
2022-11-07T23:39:19.573Z,6.80
2022-11-07T23:41:46.876Z,6.97
2022-11-07T23:44:14.691Z,7.23
2022-11-07T23:47:00.869Z,7.60
2022-11-07T23:49:46.084Z,6.60
2022-11-07T23:52:13.117Z,11.30
2022-11-07T23:54:58.958Z,8.68
2022-11-07T23:57:26.136Z,19.20
